Time,TemperatureF,DewpointF,PressureIn,WindDirection,WindDirectionDegrees,WindSpeedMPH,WindSpeedGustMPH,Humidity,HourlyPrecipIn,Conditions,Clouds,dailyrainin,SoftwareType,DateUTC
2013-07-12 00:09:00,65.2,59.2,30.06,SE,127,0.0,0.0,81,0.00,,,0.00,Wunderground v.1.15,2013-07-12 05:09:00,
2013-07-12 00:14:00,65.3,59.3,30.06,South,180,0.0,0.0,81,0.00,,,0.00,Wunderground v.1.15,2013-07-12 05:14:00,
2013-07-12 00:19:00,65.0,59.0,30.07,South,174,0.0,0.0,81,0.00,,,0.00,Wunderground v.1.15,2013-07-12 05:19:00,
2013-07-12 00:24:00,64.8,59.2,30.06,ESE,117,0.0,0.0,82,0.00,,,0.00,Wunderground v.1.15,2013-07-12 05:24:00,
2013-07-12 00:34:00,64.4,58.8,30.07,WSW,238,0.0,0.0,82,0.00,,,0.00,Wunderground v.1.15,2013-07-12 05:34:00,
2013-07-12 00:39:00,64.0,58.7,30.07,SW,232,0.0,0.0,83,0.00,,,0.00,Wunderground v.1.15,2013-07-12 05:39:00,
2013-07-12 00:44:00,63.9,59.0,30.07,SW,232,0.0,0.0,84,0.00,,,0.00,Wunderground v.1.15,2013-07-12 05:44:00,
2013-07-12 00:49:00,64.1,59.2,30.07,SW,225,0.0,0.0,84,0.00,,,0.00,Wunderground v.1.15,2013-07-12 05:49:00,
2013-07-12 00:59:00,64.4,59.1,30.07,SE,138,0.0,0.0,83,0.00,,,0.00,Wunderground v.1.15,2013-07-12 05:59:00,
2013-07-12 01:08:00,63.8,58.9,30.07,SE,124,0.0,0.0,84,0.00,,,0.00,Wunderground v.1.15,2013-07-12 06:08:00,
2013-07-12 01:14:00,63.9,59.0,30.07,ESE,121,0.0,0.0,84,0.00,,,0.00,Wunderground v.1.15,2013-07-12 06:14:00,
2013-07-12 01:19:00,63.5,58.6,30.08,SSE,151,0.0,0.0,84,0.00,,,0.00,Wunderground v.1.15,2013-07-12 06:19:00,
2013-07-12 01:24:00,63.0,58.4,30.08,SSE,166,0.0,0.0,85,0.00,,,0.00,Wunderground v.1.15,2013-07-12 06:24:00,
2013-07-12 01:29:00,62.5,58.3,30.08,SSE,166,0.0,0.0,86,0.00,,,0.00,Wunderground v.1.15,2013-07-12 06:29:00,
2013-07-12 01:38:00,61.7,57.8,30.09,SSE,167,0.0,0.0,87,0.00,,,0.00,Wunderground v.1.15,2013-07-12 06:38:00,
2013-07-12 01:43:00,61.4,57.8,30.09,SSE,167,0.0,0.0,88,0.00,,,0.00,Wunderground v.1.15,2013-07-12 06:43:00,
2013-07-12 01:48:00,61.1,57.5,30.09,SSE,166,0.0,0.0,88,0.00,,,0.00,Wunderground v.1.15,2013-07-12 06:48:00,
2013-07-12 01:53:00,60.8,57.5,30.09,SSE,166,0.0,0.0,89,0.00,,,0.00,Wunderground v.1.15,2013-07-12 06:53:00,
2013-07-12 01:59:00,60.4,57.5,30.09,SSE,166,0.0,0.0,90,0.00,,,0.00,Wunderground v.1.15,2013-07-12 06:59:00,
2013-07-12 02:08:00,59.9,57.0,30.08,SSE,166,0.0,0.0,90,0.00,,,0.00,Wunderground v.1.15,2013-07-12 07:08:00,
2013-07-12 02:13:00,59.6,57.0,30.08,SSE,167,0.0,0.0,91,0.00,,,0.00,Wunderground v.1.15,2013-07-12 07:13:00,
2013-07-12 02:18:00,59.3,56.7,30.08,SSE,166,0.0,0.0,91,0.00,,,0.00,Wunderground v.1.15,2013-07-12 07:18:00,
2013-07-12 02:28:00,59.1,56.5,30.08,SSE,167,0.0,0.0,91,0.00,,,0.00,Wunderground v.1.15,2013-07-12 07:28:00,
2013-07-12 02:33:00,59.1,56.5,30.08,SSE,166,0.0,0.0,91,0.00,,,0.00,Wunderground v.1.15,2013-07-12 07:33:00,
2013-07-12 02:38:00,59.3,56.4,30.07,SSE,166,0.0,0.0,90,0.00,,,0.00,Wunderground v.1.15,2013-07-12 07:38:00,
2013-07-12 02:43:00,59.3,56.1,30.07,SSE,166,0.0,0.0,89,0.00,,,0.00,Wunderground v.1.15,2013-07-12 07:43:00,
2013-07-12 02:48:00,59.4,56.2,30.07,SSE,167,0.0,0.0,89,0.00,,,0.00,Wunderground v.1.15,2013-07-12 07:48:00,
2013-07-12 02:53:00,59.3,56.1,30.07,SSW,212,0.0,0.0,89,0.00,,,0.00,Wunderground v.1.15,2013-07-12 07:53:00,
2013-07-12 02:58:00,59.2,55.6,30.07,SSW,213,0.0,0.0,88,0.00,,,0.00,Wunderground v.1.15,2013-07-12 07:58:00,
2013-07-12 03:08:00,59.5,55.6,30.07,SW,219,0.0,0.0,87,0.00,,,0.00,Wunderground v.1.15,2013-07-12 08:08:00,
2013-07-12 03:13:00,59.6,55.4,30.07,SW,219,0.0,0.0,86,0.00,,,0.00,Wunderground v.1.15,2013-07-12 08:13:00,
2013-07-12 03:23:00,59.2,55.3,30.07,SW,219,0.0,0.0,87,0.00,,,0.00,Wunderground v.1.15,2013-07-12 08:23:00,
2013-07-12 03:28:00,58.8,55.3,30.07,SW,219,0.0,0.0,88,0.00,,,0.00,Wunderground v.1.15,2013-07-12 08:28:00,
2013-07-12 03:33:00,58.5,55.0,30.08,SW,219,0.0,0.0,88,0.00,,,0.00,Wunderground v.1.15,2013-07-12 08:33:00,
2013-07-12 03:38:00,58.2,55.0,30.08,SSW,210,0.0,0.0,89,0.00,,,0.00,Wunderground v.1.15,2013-07-12 08:38:00,
2013-07-12 03:43:00,57.9,54.7,30.08,SSW,210,0.0,0.0,89,0.00,,,0.00,Wunderground v.1.15,2013-07-12 08:43:00,
2013-07-12 03:53:00,57.7,54.5,30.08,SW,222,0.0,0.0,89,0.00,,,0.00,Wunderground v.1.15,2013-07-12 08:53:00,
2013-07-12 03:58:00,57.5,54.3,30.08,SW,222,0.0,0.0,89,0.00,,,0.00,Wunderground v.1.15,2013-07-12 08:58:00,
2013-07-12 04:08:00,57.3,54.4,30.08,SW,222,0.0,0.0,90,0.00,,,0.00,Wunderground v.1.15,2013-07-12 09:08:00,
2013-07-12 04:13:00,57.0,53.8,30.09,SW,222,0.0,0.0,89,0.00,,,0.00,Wunderground v.1.15,2013-07-12 09:13:00,
2013-07-12 04:18:00,57.0,54.4,30.09,SW,222,0.0,0.0,91,0.00,,,0.00,Wunderground v.1.15,2013-07-12 09:18:00,
2013-07-12 04:28:00,57.5,54.6,30.08,SSW,199,0.0,0.0,90,0.00,,,0.00,Wunderground v.1.15,2013-07-12 09:28:00,
2013-07-12 04:38:00,57.4,53.9,30.07,SSW,198,0.0,0.0,88,0.00,,,0.00,Wunderground v.1.15,2013-07-12 09:38:00,
2013-07-12 04:43:00,57.5,54.0,30.08,SSW,198,0.0,0.0,88,0.00,,,0.00,Wunderground v.1.15,2013-07-12 09:43:00,
2013-07-12 04:48:00,57.6,54.4,30.07,SSW,198,0.0,0.0,89,0.00,,,0.00,Wunderground v.1.15,2013-07-12 09:48:00,
2013-07-12 04:53:00,57.7,54.2,30.09,WSW,243,0.0,0.0,88,0.00,,,0.00,Wunderground v.1.15,2013-07-12 09:53:00,
2013-07-12 04:58:00,57.8,54.0,30.08,WSW,243,0.0,0.0,87,0.00,,,0.00,Wunderground v.1.15,2013-07-12 09:58:00,
2013-07-12 05:08:00,58.3,53.8,30.09,ENE,63,0.0,0.0,85,0.00,,,0.00,Wunderground v.1.15,2013-07-12 10:08:00,
2013-07-12 05:18:00,57.4,53.9,30.09,ENE,63,0.0,0.0,88,0.00,,,0.00,Wunderground v.1.15,2013-07-12 10:18:00,
2013-07-12 05:23:00,57.1,53.6,30.10,ENE,63,0.0,0.0,88,0.00,,,0.00,Wunderground v.1.15,2013-07-12 10:23:00,
2013-07-12 05:28:00,57.0,53.8,30.10,ENE,63,0.0,0.0,89,0.00,,,0.00,Wunderground v.1.15,2013-07-12 10:28:00,
2013-07-12 05:33:00,56.8,53.6,30.11,ENE,64,0.0,0.0,89,0.00,,,0.00,Wunderground v.1.15,2013-07-12 10:33:00,
2013-07-12 05:43:00,56.1,52.9,30.11,ENE,64,0.0,0.0,89,0.00,,,0.00,Wunderground v.1.15,2013-07-12 10:43:00,
2013-07-12 05:48:00,55.9,53.0,30.11,ENE,64,0.0,0.0,90,0.00,,,0.00,Wunderground v.1.15,2013-07-12 10:48:00,
2013-07-12 05:53:00,56.0,53.1,30.11,ENE,64,0.0,0.0,90,0.00,,,0.00,Wunderground v.1.15,2013-07-12 10:53:00,
2013-07-12 05:58:00,56.3,53.7,30.11,ENE,64,0.0,0.0,91,0.00,,,0.00,Wunderground v.1.15,2013-07-12 10:58:00,
2013-07-12 06:07:00,57.5,54.0,30.12,ENE,63,0.0,0.0,88,0.00,,,0.00,Wunderground v.1.15,2013-07-12 11:07:00,
2013-07-12 06:12:00,58.5,54.6,30.12,ENE,64,0.0,0.0,87,0.00,,,0.00,Wunderground v.1.15,2013-07-12 11:12:00,
2013-07-12 06:17:00,59.0,54.8,30.12,ENE,64,0.0,0.0,86,0.00,,,0.00,Wunderground v.1.15,2013-07-12 11:17:00,
2013-07-12 06:22:00,59.4,54.9,30.12,ENE,64,0.0,0.0,85,0.00,,,0.00,Wunderground v.1.15,2013-07-12 11:22:00,
2013-07-12 06:27:00,59.3,55.1,30.12,ENE,63,0.0,0.0,86,0.00,,,0.00,Wunderground v.1.15,2013-07-12 11:27:00,
2013-07-12 06:32:00,59.2,55.3,30.12,ENE,64,0.0,0.0,87,0.00,,,0.00,Wunderground v.1.15,2013-07-12 11:32:00,
2013-07-12 06:38:00,59.1,55.5,30.12,ENE,64,0.0,0.0,88,0.00,,,0.00,Wunderground v.1.15,2013-07-12 11:38:00,
2013-07-12 06:47:00,59.2,56.0,30.12,ENE,64,0.0,0.0,89,0.00,,,0.00,Wunderground v.1.15,2013-07-12 11:47:00,
2013-07-12 06:52:00,59.4,56.2,30.12,ENE,64,0.0,0.0,89,0.00,,,0.00,Wunderground v.1.15,2013-07-12 11:52:00,
2013-07-12 06:57:00,59.9,56.3,30.12,NE,41,0.0,0.0,88,0.00,,,0.00,Wunderground v.1.15,2013-07-12 11:57:00,
2013-07-12 07:07:00,61.7,57.1,30.12,NE,41,0.0,0.0,85,0.00,,,0.00,Wunderground v.1.15,2013-07-12 12:07:00,
2013-07-12 07:12:00,62.6,57.4,30.13,NE,34,0.0,0.0,83,0.00,,,0.00,Wunderground v.1.15,2013-07-12 12:12:00,
2013-07-12 07:22:00,63.5,58.2,30.13,NE,34,0.0,0.0,83,0.00,,,0.00,Wunderground v.1.15,2013-07-12 12:22:00,
2013-07-12 07:32:00,65.7,59.0,30.13,NE,34,0.0,0.0,79,0.00,,,0.00,Wunderground v.1.15,2013-07-12 12:32:00,
2013-07-12 07:37:00,66.8,58.6,30.13,NE,36,0.0,0.0,75,0.00,,,0.00,Wunderground v.1.15,2013-07-12 12:37:00,
2013-07-12 07:42:00,67.1,59.3,30.13,NE,36,0.0,0.0,76,0.00,,,0.00,Wunderground v.1.15,2013-07-12 12:42:00,
2013-07-12 07:47:00,67.0,58.4,30.13,NE,36,0.0,0.0,74,0.00,,,0.00,Wunderground v.1.15,2013-07-12 12:47:00,
2013-07-12 07:57:00,67.3,57.6,30.14,SE,131,0.0,0.0,71,0.00,,,0.00,Wunderground v.1.15,2013-07-12 12:57:00,
2013-07-12 08:07:00,67.8,56.9,30.14,South,177,0.0,0.0,68,0.00,,,0.00,Wunderground v.1.15,2013-07-12 13:07:00,
2013-07-12 08:17:00,68.4,58.2,30.13,SE,145,0.0,0.0,70,0.00,,,0.00,Wunderground v.1.15,2013-07-12 13:17:00,
2013-07-12 08:22:00,69.0,59.2,30.14,SE,143,0.0,0.0,71,0.00,,,0.00,Wunderground v.1.15,2013-07-12 13:22:00,
2013-07-12 08:27:00,69.5,58.1,30.14,SW,222,0.0,0.0,67,0.00,,,0.00,Wunderground v.1.15,2013-07-12 13:27:00,
2013-07-12 08:32:00,70.0,57.7,30.13,SE,137,0.0,0.0,65,0.00,,,0.00,Wunderground v.1.15,2013-07-12 13:32:00,
2013-07-12 08:37:00,70.4,57.6,30.13,SSW,206,0.0,1.0,64,0.00,,,0.00,Wunderground v.1.15,2013-07-12 13:37:00,
2013-07-12 08:42:00,70.8,56.7,30.13,South,191,0.0,1.0,61,0.00,,,0.00,Wunderground v.1.15,2013-07-12 13:42:00,
2013-07-12 08:47:00,71.4,56.3,30.13,ESE,122,0.0,0.0,59,0.00,,,0.00,Wunderground v.1.15,2013-07-12 13:47:00,
2013-07-12 08:52:00,72.1,58.4,30.13,ESE,117,1.0,1.0,62,0.00,,,0.00,Wunderground v.1.15,2013-07-12 13:52:00,
2013-07-12 09:02:00,73.3,58.6,30.13,South,184,0.0,1.0,60,0.00,,,0.00,Wunderground v.1.15,2013-07-12 14:02:00,
2013-07-12 09:07:00,73.7,57.5,30.13,SW,224,0.0,0.0,57,0.00,,,0.00,Wunderground v.1.15,2013-07-12 14:07:00,
2013-07-12 09:12:00,73.5,58.3,30.13,SSE,147,1.0,1.0,59,0.00,,,0.00,Wunderground v.1.15,2013-07-12 14:12:00,
2013-07-12 09:17:00,73.2,58.0,30.13,ESE,105,0.0,0.0,59,0.00,,,0.00,Wunderground v.1.15,2013-07-12 14:17:00,
2013-07-12 09:28:00,72.6,59.7,30.13,WSW,246,0.0,0.0,64,0.00,,,0.00,Wunderground v.1.15,2013-07-12 14:28:00,
2013-07-12 09:37:00,72.2,59.8,30.13,SSW,212,0.0,0.0,65,0.00,,,0.00,Wunderground v.1.15,2013-07-12 14:37:00,
2013-07-12 09:42:00,72.1,58.8,30.13,ESE,108,0.0,0.0,63,0.00,,,0.00,Wunderground v.1.15,2013-07-12 14:42:00,
2013-07-12 09:47:00,72.3,58.1,30.13,SE,146,0.0,0.0,61,0.00,,,0.00,Wunderground v.1.15,2013-07-12 14:47:00,
2013-07-12 09:57:00,73.4,58.2,30.13,SSE,166,1.0,1.0,59,0.00,,,0.00,Wunderground v.1.15,2013-07-12 14:57:00,
2013-07-12 10:07:00,74.9,59.6,30.13,ESE,121,1.0,1.0,59,0.00,,,0.00,Wunderground v.1.15,2013-07-12 15:07:00,
2013-07-12 10:12:00,75.5,59.2,30.13,East,101,0.0,1.0,57,0.00,,,0.00,Wunderground v.1.15,2013-07-12 15:12:00,
2013-07-12 10:17:00,75.8,59.0,30.13,SE,146,1.0,1.0,56,0.00,,,0.00,Wunderground v.1.15,2013-07-12 15:17:00,
2013-07-12 10:22:00,76.6,60.7,30.13,SE,142,0.0,1.0,58,0.00,,,0.00,Wunderground v.1.15,2013-07-12 15:22:00,
2013-07-12 10:27:00,76.4,59.5,30.13,SE,124,1.0,1.0,56,0.00,,,0.00,Wunderground v.1.15,2013-07-12 15:27:00,
2013-07-12 10:37:00,76.7,60.3,30.13,WNW,297,0.0,0.0,57,0.00,,,0.00,Wunderground v.1.15,2013-07-12 15:37:00,
2013-07-12 10:47:00,77.8,60.8,30.13,ESE,108,0.0,1.0,56,0.00,,,0.00,Wunderground v.1.15,2013-07-12 15:47:00,
2013-07-12 10:52:00,77.9,60.4,30.12,SSE,154,0.0,1.0,55,0.00,,,0.00,Wunderground v.1.15,2013-07-12 15:52:00,
2013-07-12 10:57:00,78.1,59.6,30.12,WSW,256,1.0,1.0,53,0.00,,,0.00,Wunderground v.1.15,2013-07-12 15:57:00,
2013-07-12 11:07:00,78.6,60.6,30.11,SW,235,0.0,1.0,54,0.00,,,0.00,Wunderground v.1.15,2013-07-12 16:07:00,
2013-07-12 11:17:00,78.9,60.8,30.11,SW,221,1.0,1.0,54,0.00,,,0.00,Wunderground v.1.15,2013-07-12 16:17:00,
2013-07-12 11:22:00,79.0,63.0,30.11,WSW,240,1.0,1.0,58,0.00,,,0.00,Wunderground v.1.15,2013-07-12 16:22:00,
2013-07-12 11:32:00,79.9,61.2,30.11,NNE,15,1.0,1.0,53,0.00,,,0.00,Wunderground v.1.15,2013-07-12 16:32:00,
2013-07-12 11:37:00,80.3,61.1,30.11,ENE,62,0.0,0.0,52,0.00,,,0.00,Wunderground v.1.15,2013-07-12 16:37:00,
2013-07-12 11:42:00,80.2,61.0,30.10,SSE,159,1.0,1.0,52,0.00,,,0.00,Wunderground v.1.15,2013-07-12 16:42:00,
2013-07-12 11:52:00,80.3,61.1,30.10,ENE,74,1.0,1.0,52,0.00,,,0.00,Wunderground v.1.15,2013-07-12 16:52:00,
2013-07-12 11:57:00,80.8,58.7,30.10,ESE,103,1.0,1.0,47,0.00,,,0.00,Wunderground v.1.15,2013-07-12 16:57:00,
2013-07-12 12:11:00,80.4,57.1,30.10,SW,236,1.0,1.0,45,0.00,,,0.00,Wunderground v.1.15,2013-07-12 17:11:00,
2013-07-12 12:16:00,80.7,58.0,30.10,SE,136,1.0,2.0,46,0.00,,,0.00,Wunderground v.1.15,2013-07-12 17:16:00,
2013-07-12 12:27:00,81.3,56.7,30.10,WSW,239,1.0,1.0,43,0.00,,,0.00,Wunderground v.1.15,2013-07-12 17:27:00,
2013-07-12 12:32:00,81.2,58.5,30.10,SSW,211,1.0,1.0,46,0.00,,,0.00,Wunderground v.1.15,2013-07-12 17:32:00,
2013-07-12 12:42:00,81.5,58.7,30.10,North,4,1.0,2.0,46,0.00,,,0.00,Wunderground v.1.15,2013-07-12 17:42:00,
2013-07-12 12:47:00,81.6,54.9,30.10,SE,145,1.0,2.0,40,0.00,,,0.00,Wunderground v.1.15,2013-07-12 17:47:00,
2013-07-12 12:52:00,81.2,57.2,30.10,North,6,2.0,2.0,44,0.00,,,0.00,Wunderground v.1.15,2013-07-12 17:52:00,
2013-07-12 13:07:00,81.7,56.4,30.10,ENE,75,1.0,1.0,42,0.00,,,0.00,Wunderground v.1.15,2013-07-12 18:07:00,
2013-07-12 13:12:00,81.4,55.4,30.10,South,174,1.0,1.0,41,0.00,,,0.00,Wunderground v.1.15,2013-07-12 18:12:00,
2013-07-12 13:17:00,81.0,57.7,30.09,WSW,243,2.0,6.0,45,0.00,,,0.00,Wunderground v.1.15,2013-07-12 18:17:00,
2013-07-12 13:22:00,81.3,59.1,30.10,NW,316,2.0,6.0,47,0.00,,,0.00,Wunderground v.1.15,2013-07-12 18:22:00,
2013-07-12 13:27:00,81.7,56.4,30.10,ESE,105,1.0,1.0,42,0.00,,,0.00,Wunderground v.1.15,2013-07-12 18:27:00,
2013-07-12 13:32:00,81.1,57.1,30.10,SW,222,2.0,3.0,44,0.00,,,0.00,Wunderground v.1.15,2013-07-12 18:32:00,
2013-07-12 13:37:00,81.1,59.0,30.09,WSW,256,2.0,2.0,47,0.00,,,0.00,Wunderground v.1.15,2013-07-12 18:37:00,
2013-07-12 13:51:00,82.3,56.2,30.09,East,90,2.0,2.0,41,0.00,,,0.00,Wunderground v.1.15,2013-07-12 18:51:00,
2013-07-12 13:57:00,82.4,59.5,30.09,ESE,122,1.0,1.0,46,0.00,,,0.00,Wunderground v.1.15,2013-07-12 18:57:00,
2013-07-12 14:17:00,83.2,55.7,30.09,SSE,166,1.0,1.0,39,0.00,,,0.00,Wunderground v.1.15,2013-07-12 19:17:00,
2013-07-12 14:26:00,82.8,59.3,30.09,SSE,162,2.0,2.0,45,0.00,,,0.00,Wunderground v.1.15,2013-07-12 19:26:00,
2013-07-12 14:31:00,83.1,57.0,30.09,SE,133,1.0,2.0,41,0.00,,,0.00,Wunderground v.1.15,2013-07-12 19:31:00,
2013-07-12 14:36:00,83.1,56.3,30.08,SW,233,1.0,1.0,40,0.00,,,0.00,Wunderground v.1.15,2013-07-12 19:36:00,
2013-07-12 14:41:00,82.7,57.9,30.08,NE,54,2.0,2.0,43,0.00,,,0.00,Wunderground v.1.15,2013-07-12 19:41:00,
2013-07-12 14:46:00,83.0,58.8,30.08,South,190,1.0,1.0,44,0.00,,,0.00,Wunderground v.1.15,2013-07-12 19:46:00,
2013-07-12 14:51:00,83.3,58.5,30.08,SE,124,1.0,2.0,43,0.00,,,0.00,Wunderground v.1.15,2013-07-12 19:51:00,
2013-07-12 14:57:00,83.3,55.8,30.08,SE,133,1.0,1.0,39,0.00,,,0.00,Wunderground v.1.15,2013-07-12 19:57:00,
2013-07-12 15:06:00,83.1,57.0,30.08,SE,135,1.0,1.0,41,0.00,,,0.00,Wunderground v.1.15,2013-07-12 20:06:00,
2013-07-12 15:11:00,82.8,56.7,30.08,WNW,297,1.0,1.0,41,0.00,,,0.00,Wunderground v.1.15,2013-07-12 20:11:00,
2013-07-12 15:16:00,83.1,57.0,30.08,SE,127,1.0,1.0,41,0.00,,,0.00,Wunderground v.1.15,2013-07-12 20:16:00,
2013-07-12 15:21:00,83.6,60.0,30.08,NNE,22,1.0,1.0,45,0.00,,,0.00,Wunderground v.1.15,2013-07-12 20:21:00,
2013-07-12 15:26:00,83.8,56.9,30.07,South,191,1.0,1.0,40,0.00,,,0.00,Wunderground v.1.15,2013-07-12 20:26:00,
2013-07-12 15:31:00,83.5,59.3,30.07,NW,305,1.0,1.0,44,0.00,,,0.00,Wunderground v.1.15,2013-07-12 20:31:00,
2013-07-12 15:41:00,83.8,56.2,30.07,ESE,120,1.0,5.0,39,0.00,,,0.00,Wunderground v.1.15,2013-07-12 20:41:00,
2013-07-12 15:51:00,84.0,57.1,30.07,SSE,153,1.0,1.0,40,0.00,,,0.00,Wunderground v.1.15,2013-07-12 20:51:00,
2013-07-12 15:56:00,84.3,58.0,30.07,SE,129,1.0,1.0,41,0.00,,,0.00,Wunderground v.1.15,2013-07-12 20:56:00,
2013-07-12 16:06:00,84.3,57.3,30.06,ESE,109,1.0,1.0,40,0.00,,,0.00,Wunderground v.1.15,2013-07-12 21:06:00,
2013-07-12 16:11:00,84.2,57.9,30.07,WSW,240,1.0,1.0,41,0.00,,,0.00,Wunderground v.1.15,2013-07-12 21:11:00,
2013-07-12 16:21:00,84.5,58.2,30.06,SSW,207,1.0,1.0,41,0.00,,,0.00,Wunderground v.1.15,2013-07-12 21:21:00,
2013-07-12 16:27:00,84.6,60.3,30.06,SW,226,1.0,2.0,44,0.00,,,0.00,Wunderground v.1.15,2013-07-12 21:27:00,
2013-07-12 16:37:00,84.3,61.3,30.06,SE,136,1.0,1.0,46,0.00,,,0.00,Wunderground v.1.15,2013-07-12 21:37:00,
2013-07-12 16:42:00,84.5,58.9,30.06,West,262,1.0,1.0,42,0.00,,,0.00,Wunderground v.1.15,2013-07-12 21:42:00,
2013-07-12 16:52:00,84.7,59.1,30.05,East,94,0.0,1.0,42,0.00,,,0.00,Wunderground v.1.15,2013-07-12 21:52:00,
2013-07-12 16:57:00,84.9,58.6,30.05,NW,318,1.0,1.0,41,0.00,,,0.00,Wunderground v.1.15,2013-07-12 21:57:00,
2013-07-12 17:07:00,84.6,57.6,30.05,ESE,123,1.0,1.0,40,0.00,,,0.00,Wunderground v.1.15,2013-07-12 22:07:00,
2013-07-12 17:17:00,84.0,60.4,30.04,SE,145,1.0,1.0,45,0.00,,,0.00,Wunderground v.1.15,2013-07-12 22:17:00,
2013-07-12 17:27:00,84.2,57.9,30.04,SE,138,1.0,1.0,41,0.00,,,0.00,Wunderground v.1.15,2013-07-12 22:27:00,
2013-07-12 17:32:00,84.4,58.8,30.04,ESE,122,0.0,1.0,42,0.00,,,0.00,Wunderground v.1.15,2013-07-12 22:32:00,
2013-07-12 17:37:00,84.1,57.2,30.04,WNW,297,0.0,0.0,40,0.00,,,0.00,Wunderground v.1.15,2013-07-12 22:37:00,
2013-07-12 17:42:00,84.1,56.5,30.04,SE,129,0.0,0.0,39,0.00,,,0.00,Wunderground v.1.15,2013-07-12 22:42:00,
2013-07-12 17:47:00,84.0,55.7,30.04,SE,146,1.0,1.0,38,0.00,,,0.00,Wunderground v.1.15,2013-07-12 22:47:00,
2013-07-12 17:52:00,83.7,57.5,30.04,SW,215,1.0,1.0,41,0.00,,,0.00,Wunderground v.1.15,2013-07-12 22:52:00,
2013-07-12 17:57:00,83.9,57.0,30.04,ESE,109,1.0,1.0,40,0.00,,,0.00,Wunderground v.1.15,2013-07-12 22:57:00,
2013-07-12 18:12:00,83.9,57.0,30.04,SE,138,0.0,1.0,40,0.00,,,0.00,Wunderground v.1.15,2013-07-12 23:12:00,
2013-07-12 18:17:00,84.1,56.5,30.04,SE,131,0.0,0.0,39,0.00,,,0.00,Wunderground v.1.15,2013-07-12 23:17:00,
2013-07-12 18:27:00,84.0,56.4,30.04,SE,136,0.0,0.0,39,0.00,,,0.00,Wunderground v.1.15,2013-07-12 23:27:00,
2013-07-12 18:32:00,83.9,57.0,30.04,SE,129,0.0,1.0,40,0.00,,,0.00,Wunderground v.1.15,2013-07-12 23:32:00,
2013-07-12 18:42:00,83.1,57.0,30.04,ESE,117,1.0,1.0,41,0.00,,,0.00,Wunderground v.1.15,2013-07-12 23:42:00,
2013-07-12 18:50:00,83.0,56.2,30.04,North,351,0.0,1.0,40,0.00,,,0.00,Wunderground v.1.15,2013-07-12 23:50:00,
2013-07-12 18:55:00,82.8,57.4,30.04,SE,130,0.0,1.0,42,0.00,,,0.00,Wunderground v.1.15,2013-07-12 23:55:00,
2013-07-12 19:00:00,82.5,56.4,30.04,ESE,122,0.0,1.0,41,0.00,,,0.00,Wunderground v.1.15,2013-07-13 00:00:00,
2013-07-12 19:10:00,82.4,58.3,30.04,SE,131,0.0,0.0,44,0.00,,,0.00,Wunderground v.1.15,2013-07-13 00:10:00,
2013-07-12 19:15:00,82.3,59.4,30.04,SE,143,0.0,0.0,46,0.00,,,0.00,Wunderground v.1.15,2013-07-13 00:15:00,
2013-07-12 19:25:00,82.1,59.9,30.04,SE,129,0.0,1.0,47,0.00,,,0.00,Wunderground v.1.15,2013-07-13 00:25:00,
2013-07-12 19:35:00,82.0,59.2,30.04,SSE,149,0.0,0.0,46,0.00,,,0.00,Wunderground v.1.15,2013-07-13 00:35:00,
2013-07-12 19:40:00,81.3,59.1,30.04,SE,145,0.0,1.0,47,0.00,,,0.00,Wunderground v.1.15,2013-07-13 00:40:00,
2013-07-12 19:45:00,80.4,60.1,30.04,SE,135,0.0,1.0,50,0.00,,,0.00,Wunderground v.1.15,2013-07-13 00:45:00,
2013-07-12 19:55:00,78.9,60.3,30.03,SE,134,0.0,0.0,53,0.00,,,0.00,Wunderground v.1.15,2013-07-13 00:55:00,
2013-07-12 20:00:00,78.7,61.2,30.04,SE,142,0.0,0.0,55,0.00,,,0.00,Wunderground v.1.15,2013-07-13 01:00:00,
2013-07-12 20:10:00,77.6,61.7,30.04,SSE,156,0.0,0.0,58,0.00,,,0.00,Wunderground v.1.15,2013-07-13 01:10:00,
2013-07-12 20:15:00,76.5,61.6,30.04,SSE,156,0.0,0.0,60,0.00,,,0.00,Wunderground v.1.15,2013-07-13 01:15:00,
2013-07-12 20:25:00,74.1,60.7,30.04,SSE,157,0.0,2.0,63,0.00,,,0.00,Wunderground v.1.15,2013-07-13 01:25:00,
2013-07-12 20:34:00,72.4,60.4,30.04,SSE,157,0.0,0.0,66,0.00,,,0.00,Wunderground v.1.15,2013-07-13 01:34:00,
2013-07-12 20:39:00,71.7,61.0,30.04,SSE,156,0.0,0.0,69,0.00,,,0.00,Wunderground v.1.15,2013-07-13 01:39:00,
2013-07-12 20:44:00,71.0,60.3,30.05,SSE,156,0.0,0.0,69,0.00,,,0.00,Wunderground v.1.15,2013-07-13 01:44:00,
2013-07-12 20:49:00,70.5,60.2,30.04,SSE,156,0.0,0.0,70,0.00,,,0.00,Wunderground v.1.15,2013-07-13 01:49:00,
2013-07-12 20:54:00,70.0,60.2,30.05,SSE,156,0.0,0.0,71,0.00,,,0.00,Wunderground v.1.15,2013-07-13 01:54:00,
2013-07-12 21:00:00,69.5,60.1,30.04,SSE,156,0.0,0.0,72,0.00,,,0.00,Wunderground v.1.15,2013-07-13 02:00:00,
2013-07-12 21:09:00,68.9,59.9,30.04,SSE,156,0.0,0.0,73,0.00,,,0.00,Wunderground v.1.15,2013-07-13 02:09:00,
2013-07-12 21:14:00,68.6,60.0,30.04,SSE,156,0.0,0.0,74,0.00,,,0.00,Wunderground v.1.15,2013-07-13 02:14:00,
2013-07-12 21:19:00,68.3,59.7,30.04,SSE,156,0.0,0.0,74,0.00,,,0.00,Wunderground v.1.15,2013-07-13 02:19:00,
2013-07-12 21:24:00,68.0,60.2,30.04,SSE,156,0.0,0.0,76,0.00,,,0.00,Wunderground v.1.15,2013-07-13 02:24:00,
2013-07-12 21:29:00,67.6,60.1,30.04,SSE,156,0.0,0.0,77,0.00,,,0.00,Wunderground v.1.15,2013-07-13 02:29:00,
2013-07-12 21:34:00,67.3,59.8,30.05,SE,145,0.0,0.0,77,0.00,,,0.00,Wunderground v.1.15,2013-07-13 02:34:00,
2013-07-12 21:39:00,67.8,60.0,30.04,SSE,166,0.0,0.0,76,0.00,,,0.00,Wunderground v.1.15,2013-07-13 02:39:00,
2013-07-12 21:49:00,68.0,59.8,30.05,SSW,206,0.0,0.0,75,0.00,,,0.00,Wunderground v.1.15,2013-07-13 02:49:00,
2013-07-12 21:59:00,67.2,59.7,30.04,SSW,200,0.0,0.0,77,0.00,,,0.00,Wunderground v.1.15,2013-07-13 02:59:00,
2013-07-12 22:09:00,67.1,59.6,30.04,ESE,110,0.0,0.0,77,0.00,,,0.00,Wunderground v.1.15,2013-07-13 03:09:00,
2013-07-12 22:14:00,67.1,58.9,30.04,SSW,204,0.0,0.0,75,0.00,,,0.00,Wunderground v.1.15,2013-07-13 03:14:00,
2013-07-12 22:19:00,67.3,59.5,30.05,SW,218,0.0,0.0,76,0.00,,,0.00,Wunderground v.1.15,2013-07-13 03:19:00,
2013-07-12 22:24:00,67.1,59.3,30.05,SE,128,0.0,0.0,76,0.00,,,0.00,Wunderground v.1.15,2013-07-13 03:24:00,
2013-07-12 22:34:00,66.6,59.2,30.05,SE,135,0.0,0.0,77,0.00,,,0.00,Wunderground v.1.15,2013-07-13 03:34:00,
2013-07-12 22:39:00,66.3,58.9,30.04,SE,135,0.0,0.0,77,0.00,,,0.00,Wunderground v.1.15,2013-07-13 03:39:00,
2013-07-12 22:44:00,65.9,58.8,30.04,SSE,156,0.0,0.0,78,0.00,,,0.00,Wunderground v.1.15,2013-07-13 03:44:00,
2013-07-12 22:49:00,65.7,58.7,30.04,SSE,165,0.0,0.0,78,0.00,,,0.00,Wunderground v.1.15,2013-07-13 03:49:00,
2013-07-12 22:54:00,65.5,58.5,30.04,SSE,165,0.0,0.0,78,0.00,,,0.00,Wunderground v.1.15,2013-07-13 03:54:00,
2013-07-12 22:59:00,65.3,58.3,30.04,WSW,246,0.0,0.0,78,0.00,,,0.00,Wunderground v.1.15,2013-07-13 03:59:00,
2013-07-12 23:04:00,65.0,58.0,30.04,SW,225,0.0,0.0,78,0.00,,,0.00,Wunderground v.1.15,2013-07-13 04:04:00,
2013-07-12 23:09:00,64.9,58.2,30.04,SW,225,0.0,0.0,79,0.00,,,0.00,Wunderground v.1.15,2013-07-13 04:09:00,
2013-07-12 23:19:00,64.5,57.8,30.04,SW,225,0.0,0.0,79,0.00,,,0.00,Wunderground v.1.15,2013-07-13 04:19:00,
2013-07-12 23:24:00,64.3,58.0,30.04,SW,224,0.0,0.0,80,0.00,,,0.00,Wunderground v.1.15,2013-07-13 04:24:00,
2013-07-12 23:29:00,64.1,57.8,30.04,SSW,197,0.0,0.0,80,0.00,,,0.00,Wunderground v.1.15,2013-07-13 04:29:00,
2013-07-12 23:34:00,64.0,57.7,30.04,SSW,197,0.0,0.0,80,0.00,,,0.00,Wunderground v.1.15,2013-07-13 04:34:00,
2013-07-12 23:39:00,63.7,57.8,30.04,SSW,198,0.0,0.0,81,0.00,,,0.00,Wunderground v.1.15,2013-07-13 04:39:00,
2013-07-12 23:44:00,63.5,57.6,30.04,SSW,199,0.0,0.0,81,0.00,,,0.00,Wunderground v.1.15,2013-07-13 04:44:00,
2013-07-12 23:49:00,63.5,57.9,30.04,SSW,198,0.0,0.0,82,0.00,,,0.00,Wunderground v.1.15,2013-07-13 04:49:00,
2013-07-12 23:54:00,63.5,57.9,30.05,SSW,197,0.0,0.0,82,0.00,,,0.00,Wunderground v.1.15,2013-07-13 04:54:00,